KCRE/CRE METAR and TAF weather

Enter ICAO airport designator
Station Type Date Time Source
KCRE METAR 2019/04/18 20:53 UTC NOAA

KCRE 182053Z 17010G15KT 10SM CLR 23/18 A3000 RMK AO1 SLP161 T02280178 57024


Station Type Date Time Source
KCRE Decoded METAR 2019/04/18 20:53 UTC NOAA

N. MYRTLE BCH.GRAND STRAND, SC, United States (KCRE) 33-49N 078-43W 10M
Apr 18, 2019 - 04:53 PM EDT / 2019.04.18 2053 UTC
Wind: from the S (170 degrees) at 12 MPH (10 KT) gusting to 17 MPH (15 KT):0
Visibility: 10 mile(s):0
Sky conditions: clear
Temperature: 73.0 F (22.8 C)
Dew Point: 64.0 F (17.8 C)
Relative Humidity: 73%
Pressure (altimeter): 30 in. Hg (1015 hPa)
Pressure tendency: 0.07 inches (2.4 hPa) lower than three hours ago
ob: KCRE 182053Z 17010G15KT 10SM CLR 23/18 A3000 RMK AO1 SLP161 T02280178 57024
cycle: 21

Station Type Date Time Source
KCRE TAF 2019/04/18 18:42 UTC NOAA

TAF KCRE 181740Z 1818/1918 18011G18KT P6SM SCT150
FM181900 18012KT P6SM SCT150
FM182000 17012G20KT P6SM SCT150
FM190200 17011KT P6SM BKN100
FM190900 18015G25KT P6SM BKN035
FM191100 18016G25KT 6SM -SHRA BKN040
FM191200 18017KT 6SM -SHRA OVC035
FM191300 18017G24KT 5SM -SHRA BKN030
FM191400 18016G27KT 6SM -SHRA BKN025

Example: see airport list